Terminal Aerodrome Forecast
Issued by NWS

Home | Current Version | Previous Version | Graphics & Text | Print | Product List | Glossary On
Versions: 1 2 3 4 5 6 7 8 9 10 11 12 13 14 15 16
000
FTUS45 KGGW 152334
TAFGDV
TAF
KGDV 152334Z 1600/1624 08007KT P6SM FEW250
     FM160300 10008KT P6SM SCT200 WS020/15030KT
     FM160900 12007KT P6SM SCT150
     FM162000 21010KT P6SM SCT110=

USA.gov is the U.S. government's official web portal to all federal, state and local government web resources and services.